.
WxDataArchive / Data Records for 2010-04-05
2010-04-04 April 2010 2010-04-06

Data Records for Monday, 05 April 2010

Time	Temp	Chill	HIndex	Humid	Dewpt	 Wind 	HiWind	WindDir	Rain 	Barom 
-----	----	-----	------	-----	-----	------	------	-------	-----	----- 
00:00	64.5	64.5	64.5	42	40.9	1	3	90	0.00	29.887 
00:05	64.2	64.2	64.2	43	41.2	1	4	90	0.00	29.887 
00:10	64.0	64.0	64.0	43	41.1	1	4	135	0.00	29.887 
00:15	63.7	63.7	63.7	44	41.4	0	2	135	0.00	29.890 
00:20	63.4	63.4	63.4	44	41.1	1	4	68	0.00	29.890 
00:25	63.1	63.1	63.1	45	41.4	0	3	90	0.00	29.890 
00:30	62.9	62.9	62.9	46	41.8	1	4	270	0.00	29.900 
00:35	62.6	62.6	62.6	46	41.5	0	1	270	0.00	29.900 
00:40	62.4	62.4	62.4	46	41.3	0	3	225	0.00	29.900 
00:45	62.4	62.4	62.4	46	41.3	1	4	270	0.00	29.911 
00:50	62.4	62.4	62.4	46	41.3	0	2	270	0.00	29.911 
00:55	62.4	62.4	62.4	47	41.9	0	2	270	0.00	29.911 
01:00	62.4	62.4	62.4	47	41.9	1	5	248	0.00	29.913 
01:05	62.4	62.4	62.4	50	43.5	1	3	248	0.00	29.913 
01:10	62.1	62.1	62.1	55	45.7	0	1	270	0.00	29.913 
01:15	61.2	61.2	61.2	58	46.3	0	1	270	0.00	29.904 
01:20	60.5	60.5	60.5	58	45.6	0	1	270	0.00	29.904 
01:25	60.4	60.4	60.4	59	46.0	0	1	270	0.00	29.904 
01:30	60.1	60.1	60.1	63	47.5	0	1	270	0.00	29.919 
01:35	59.6	59.6	59.6	64	47.4	0	3	270	0.00	29.919 
01:40	59.3	59.3	59.3	65	47.5	1	3	248	0.00	29.919 
01:45	58.9	58.9	58.9	70	49.1	1	3	248	0.00	29.906 
01:50	58.3	58.3	58.3	73	49.7	1	4	270	0.01	29.906 
01:55	58.0	58.0	58.0	75	50.1	0	2	248	0.00	29.906 
02:00	57.5	57.5	57.5	76	50.0	0	1	248	0.00	29.878 
02:05	57.3	57.3	57.3	77	50.1	0	1	248	0.00	29.878 
02:10	57.0	57.0	57.0	79	50.5	0	0	---	0.00	29.878 
02:15	56.9	56.9	56.9	79	50.5	0	0	---	0.00	29.875 
02:20	56.6	56.6	56.6	81	50.8	0	0	---	0.00	29.875 
02:25	56.3	56.3	56.3	82	50.9	0	0	---	0.00	29.875 
02:30	56.2	56.2	56.2	83	51.1	0	0	---	0.00	29.874 
02:35	56.0	56.0	56.0	84	51.2	0	0	---	0.00	29.874 
02:40	56.0	56.0	56.0	84	51.2	0	0	---	0.00	29.874 
02:45	55.9	55.9	55.9	85	51.5	0	0	---	0.00	29.869 
02:50	55.7	55.7	55.7	85	51.3	0	0	---	0.00	29.869 
02:55	55.4	55.4	55.4	86	51.3	0	0	---	0.00	29.869 
03:00	55.3	55.3	55.3	86	51.2	0	0	---	0.00	29.870 
03:05	55.0	55.0	55.0	86	50.9	0	0	---	0.00	29.870 
03:10	54.8	54.8	54.8	86	50.7	0	1	248	0.00	29.870 
03:15	54.8	54.8	54.8	84	50.1	0	1	248	0.00	29.864 
03:20	55.0	55.0	55.0	83	49.9	0	0	---	0.00	29.864 
03:25	55.4	55.4	55.4	82	50.0	0	2	248	0.00	29.864 
03:30	55.9	55.9	55.9	79	49.5	0	1	248	0.00	29.867 
03:35	56.5	56.5	56.5	78	49.7	0	1	248	0.00	29.867 
03:40	56.6	56.6	56.6	77	49.5	0	1	248	0.00	29.867 
03:45	56.9	56.9	56.9	75	49.1	0	2	248	0.00	29.858 
03:50	57.2	57.2	57.2	75	49.3	0	0	---	0.00	29.858 
03:55	57.5	57.5	57.5	74	49.3	0	1	248	0.00	29.858 
04:00	57.6	57.6	57.6	74	49.4	0	2	248	0.00	29.854 
04:05	58.1	58.1	58.1	73	49.5	0	1	248	0.00	29.854 
04:10	58.4	58.4	58.4	72	49.4	0	1	0	0.00	29.854 
04:15	58.6	58.6	58.6	71	49.2	1	4	248	0.00	29.852 
04:20	58.9	58.9	58.9	69	48.7	1	4	248	0.00	29.852 
04:25	59.2	59.2	59.2	69	49.0	0	2	248	0.00	29.852 
04:30	59.3	59.3	59.3	68	48.7	0	2	248	0.00	29.852 
04:35	59.5	59.5	59.5	68	48.9	1	5	270	0.00	29.852 
04:40	59.6	59.6	59.6	68	49.0	0	3	225	0.00	29.852 
04:45	59.8	59.8	59.8	68	49.2	0	2	225	0.00	29.860 
04:50	59.9	59.9	59.9	68	49.3	1	4	248	0.00	29.860 
04:55	59.9	59.9	59.9	68	49.3	1	4	248	0.00	29.860 
05:00	60.1	60.1	60.1	68	49.5	1	3	248	0.00	29.868 
05:05	60.2	60.2	60.2	68	49.6	1	3	248	0.00	29.868 
05:10	60.2	60.2	60.2	68	49.6	1	3	270	0.00	29.868 
05:15	60.2	60.2	60.2	68	49.6	1	6	248	0.00	29.874 
05:20	60.4	60.4	60.4	68	49.8	1	4	248	0.00	29.874 
05:25	60.4	60.4	60.4	68	49.8	1	5	248	0.00	29.874 
05:30	60.4	60.4	60.4	67	49.4	1	4	248	0.00	29.878 
05:35	60.4	60.4	60.4	67	49.4	1	4	248	0.00	29.878 
05:40	60.4	60.4	60.4	68	49.8	1	4	248	0.00	29.878 
05:45	60.4	60.4	60.4	68	49.8	1	4	248	0.00	29.876 
05:50	60.4	60.4	60.4	68	49.8	1	6	248	0.00	29.876 
05:55	60.2	60.2	60.2	68	49.6	2	5	248	0.00	29.876 
06:00	60.2	60.2	60.2	69	50.0	1	4	248	0.00	29.875 
06:05	60.2	60.2	60.2	69	50.0	2	7	248	0.00	29.875 
06:10	60.2	60.2	60.2	69	50.0	2	4	248	0.00	29.875 
06:15	60.4	60.4	60.4	70	50.6	2	5	248	0.00	29.883 
06:20	60.4	60.4	60.4	70	50.6	2	6	248	0.00	29.883 
06:25	60.2	60.2	60.2	70	50.4	2	5	248	0.00	29.883 
06:30	60.2	60.2	60.2	71	50.8	1	6	248	0.00	29.885 
06:35	60.1	60.1	60.1	71	50.7	1	3	248	0.00	29.885 
06:40	60.1	60.1	60.1	72	51.0	1	4	248	0.00	29.885 
06:45	59.9	59.9	59.9	72	50.8	0	2	248	0.00	29.892 
06:50	59.6	59.6	59.6	73	50.9	1	4	248	0.00	29.892 
06:55	59.5	59.5	59.5	73	50.8	1	4	248	0.00	29.892 
07:00	59.3	59.3	59.3	73	50.6	1	5	248	0.00	29.904 
07:05	59.3	59.3	59.3	74	51.0	1	5	248	0.00	29.904 
07:10	59.3	59.3	59.3	74	51.0	1	4	270	0.00	29.904 
07:15	59.3	59.3	59.3	74	51.0	1	4	248	0.00	29.919 
07:20	59.5	59.5	59.5	75	51.6	1	4	248	0.00	29.919 
07:25	59.5	59.5	59.5	75	51.6	2	5	248	0.00	29.919 
07:30	59.5	59.5	59.5	76	51.9	2	5	248	0.00	29.927 
07:35	59.6	59.6	59.6	76	52.0	1	5	248	0.00	29.927 
07:40	59.5	59.5	59.5	76	51.9	1	4	248	0.00	29.927 
07:45	59.5	59.5	59.5	77	52.3	1	3	248	0.00	29.934 
07:50	59.5	59.5	59.5	78	52.6	1	4	248	0.01	29.934 
07:55	59.8	59.8	59.8	78	52.9	2	4	248	0.00	29.934 
08:00	59.9	59.9	59.9	79	53.4	2	4	248	0.00	29.941 
08:05	60.1	60.1	60.1	79	53.6	2	3	248	0.00	29.941 
08:10	60.2	60.2	60.2	78	53.3	2	5	225	0.00	29.941 
08:15	60.5	60.5	60.5	78	53.6	2	6	248	0.00	29.953 
08:20	60.5	60.5	60.5	78	53.6	2	4	248	0.00	29.953 
08:25	60.7	60.7	60.7	77	53.4	2	4	248	0.00	29.953 
08:30	60.9	60.9	60.9	77	53.6	2	5	248	0.00	29.957 
08:35	61.0	61.0	61.0	77	53.7	1	4	248	0.00	29.957 
08:40	61.0	61.0	61.0	77	53.7	2	6	248	0.00	29.957 
08:45	61.2	61.2	61.2	77	53.9	2	6	248	0.00	29.964 
08:50	61.3	61.3	61.3	77	54.0	1	5	248	0.00	29.964 
08:55	61.5	61.5	61.5	77	54.2	2	7	248	0.00	29.964 
09:00	61.6	61.6	61.6	76	54.0	2	3	248	0.00	29.971 
09:05	61.8	61.8	61.8	76	54.1	2	7	292	0.00	29.971 
09:10	61.8	61.8	61.8	76	54.1	2	6	270	0.00	29.971 
09:15	62.0	62.0	62.0	76	54.3	2	3	248	0.00	29.981 
09:20	62.1	62.1	62.1	75	54.1	2	4	292	0.00	29.981 
09:25	62.1	62.1	62.1	75	54.1	2	5	270	0.00	29.981 
09:30	62.3	62.3	62.3	73	53.5	3	5	270	0.00	29.981 
09:35	62.4	62.4	62.4	74	54.0	2	4	248	0.00	29.981 
09:40	62.6	62.6	62.6	73	53.8	2	4	248	0.00	29.981 
09:45	62.9	62.9	62.9	72	53.7	2	4	248	0.00	29.982 
09:50	63.2	63.2	63.2	71	53.6	2	4	315	0.00	29.982 
09:55	63.2	63.2	63.2	71	53.6	2	5	292	0.00	29.982 
10:00	63.4	63.4	63.4	70	53.4	2	4	270	0.00	29.985 
10:05	63.5	63.5	63.5	70	53.5	2	6	270	0.00	29.985 
10:10	63.7	63.7	63.7	69	53.3	2	5	315	0.00	29.985 
10:15	63.7	63.7	63.7	69	53.3	2	5	270	0.00	29.996 
10:20	63.9	63.9	63.9	69	53.5	3	6	270	0.00	29.996 
10:25	63.9	63.9	63.9	69	53.5	3	7	270	0.00	29.996 
10:30	64.0	64.0	64.0	70	54.0	2	4	315	0.00	30.004 
10:35	64.3	64.3	64.3	68	53.5	3	7	248	0.00	30.004 
10:40	64.5	64.5	64.5	67	53.3	2	5	292	0.00	30.004 
10:45	64.8	64.8	64.8	67	53.6	2	4	270	0.00	30.010 
10:50	65.3	65.3	65.3	67	54.1	2	4	248	0.00	30.010 
10:55	65.5	65.5	65.5	65	53.4	2	5	315	0.00	30.010 
11:00	65.5	65.5	65.5	65	53.4	2	4	338	0.00	30.015 
11:05	65.5	65.5	65.5	65	53.4	2	5	338	0.00	30.015 
11:10	65.6	65.6	65.6	65	53.5	2	4	270	0.00	30.015 
11:15	65.8	65.8	65.8	65	53.7	3	5	292	0.00	30.022 
11:20	66.0	66.0	66.0	64	53.5	2	4	270	0.00	30.022 
11:25	66.3	66.3	66.3	66	54.6	2	4	248	0.00	30.022 
11:30	66.6	66.6	66.6	65	54.5	3	5	248	0.00	30.024 
11:35	66.8	66.8	66.8	63	53.8	2	4	270	0.00	30.024 
11:40	66.9	66.9	66.9	63	53.9	2	5	270	0.00	30.024 
11:45	67.1	67.1	67.1	63	54.1	2	5	270	0.00	30.026 
11:50	67.3	67.3	67.3	61	53.4	2	5	270	0.00	30.026 
11:55	67.6	67.6	67.6	61	53.7	3	6	270	0.00	30.026 
12:00	67.6	67.6	67.6	59	52.8	3	7	270	0.00	30.027 
12:05	67.9	67.9	67.9	59	53.0	2	6	270	0.00	30.027 
12:10	67.9	67.9	67.9	58	52.6	2	4	315	0.00	30.027 
12:15	68.3	68.3	68.3	54	51.0	3	5	270	0.00	30.019 
12:20	68.4	68.4	68.4	54	51.1	2	6	270	0.00	30.019 
12:25	68.8	68.8	68.8	57	52.9	1	3	248	0.00	30.019 
12:30	69.1	69.1	69.1	55	52.2	2	4	292	0.00	30.014 
12:35	69.3	69.3	69.3	54	51.9	2	5	248	0.00	30.014 
12:40	69.4	69.4	69.4	57	53.5	2	5	270	0.00	30.014 
12:45	69.9	69.9	69.9	52	51.5	2	3	270	0.00	30.015 
12:50	70.3	70.3	70.3	53	52.3	1	5	225	0.00	30.015 
12:55	70.4	70.4	70.4	50	50.9	3	7	225	0.00	30.015 
13:00	70.3	70.3	70.3	50	50.8	2	4	315	0.00	30.015 
13:05	70.4	70.4	70.4	47	49.2	2	5	248	0.00	30.015 
13:10	70.4	70.4	70.4	49	50.3	2	4	270	0.00	30.015 
13:15	70.6	70.6	70.6	48	49.9	2	4	338	0.00	30.018 
13:20	71.1	71.1	71.1	47	49.8	2	5	225	0.00	30.018 
13:25	71.3	71.3	71.3	46	49.4	2	5	248	0.00	30.018 
13:30	71.5	71.5	71.5	47	50.2	2	4	270	0.00	30.012 
13:35	71.6	71.6	71.6	47	50.3	1	4	248	0.00	30.012 
13:40	71.8	71.8	71.8	48	51.0	2	4	292	0.00	30.012 
13:45	72.1	72.1	72.1	46	50.2	2	5	248	0.00	30.013 
13:50	72.3	72.3	72.3	46	50.3	3	9	270	0.00	30.013 
13:55	72.5	72.5	72.5	44	49.3	3	8	248	0.00	30.013 
14:00	72.7	72.7	72.7	45	50.1	2	4	248	0.00	30.014 
14:05	72.8	72.8	72.8	43	49.0	2	5	248	0.00	30.014 
14:10	72.8	72.8	72.8	46	50.8	2	10	248	0.00	30.014 
14:15	73.2	73.2	73.2	46	51.2	1	6	248	0.00	30.024 
14:20	73.5	73.5	73.5	43	49.6	2	6	248	0.00	30.024 
14:25	73.7	73.7	73.7	44	50.4	2	6	292	0.00	30.024 
14:30	73.7	73.7	73.7	43	49.8	2	6	248	0.00	30.016 
14:35	73.7	73.7	73.7	43	49.8	3	7	248	0.00	30.016 
14:40	74.0	74.0	74.0	43	50.1	2	4	248	0.00	30.016 
14:45	74.2	74.2	74.2	43	50.2	1	3	248	0.00	30.014 
14:50	74.4	74.4	74.4	41	49.1	1	3	292	0.00	30.014 
14:55	74.7	74.7	74.7	42	50.1	2	6	248	0.00	30.014 
15:00	74.4	74.4	74.4	40	48.5	2	5	270	0.00	30.007 
15:05	74.2	74.2	74.2	40	48.3	3	8	270	0.00	30.007 
15:10	74.4	74.4	74.4	43	50.4	1	6	248	0.00	30.007 
15:15	74.2	74.2	74.2	41	49.0	2	6	338	0.00	30.007 
15:20	74.4	74.4	74.4	43	50.4	1	3	248	0.00	30.007 
15:25	74.7	74.7	74.7	40	48.8	2	4	248	0.00	30.007 
15:30	74.7	74.7	74.7	40	48.8	1	3	248	0.00	30.008 
15:35	74.6	74.6	74.6	38	47.3	2	6	270	0.00	30.008 
15:40	74.7	74.7	74.7	40	48.8	2	6	248	0.00	30.008 
15:45	74.9	74.9	74.9	39	48.3	1	4	248	0.00	29.997 
15:50	75.4	75.4	77.6	39	48.7	1	4	248	0.00	29.997 
15:55	75.6	75.6	77.7	41	50.2	1	5	248	0.00	29.997 
16:00	75.6	75.6	77.7	41	50.2	1	3	315	0.00	29.995 
16:05	75.6	75.6	77.6	38	48.2	1	3	248	0.00	29.995 
16:10	75.6	75.6	77.6	39	48.9	2	6	248	0.00	29.995 
16:15	75.6	75.6	77.6	39	48.9	2	5	248	0.00	29.991 
16:20	75.6	75.6	77.6	39	48.9	1	4	248	0.00	29.991 
16:25	75.6	75.6	77.6	38	48.2	1	4	248	0.00	29.991 
16:30	75.8	75.8	77.7	39	49.1	1	5	248	0.00	29.982 
16:35	75.8	75.8	77.7	39	49.1	2	5	248	0.00	29.982 
16:40	76.0	76.0	77.8	39	49.2	1	2	248	0.00	29.982 
16:45	75.8	75.8	77.7	39	49.1	2	4	248	0.00	29.982 
16:50	75.4	75.4	77.5	38	48.0	2	7	248	0.00	29.982 
16:55	75.1	75.1	77.6	41	49.8	2	6	248	0.00	29.982 
17:00	74.6	74.6	74.6	40	48.7	2	6	248	0.00	29.980 
17:05	74.2	74.2	74.2	39	47.6	2	6	248	0.00	29.980 
17:10	74.0	74.0	74.0	40	48.1	2	5	248	0.00	29.980 
17:15	73.9	73.9	73.9	39	47.4	2	5	248	0.00	29.978 
17:20	73.7	73.7	73.7	41	48.5	0	3	248	0.00	29.978 
17:25	73.7	73.7	73.7	39	47.2	2	5	248	0.00	29.978 
17:30	73.7	73.7	73.7	40	47.9	1	3	248	0.00	29.975 
17:35	73.7	73.7	73.7	42	49.2	1	3	248	0.00	29.975 
17:40	74.0	74.0	74.0	44	50.7	1	2	248	0.00	29.975 
17:45	74.2	74.2	74.2	41	49.0	1	3	248	0.00	29.975 
17:50	74.0	74.0	74.0	44	50.7	1	3	248	0.00	29.975 
17:55	73.7	73.7	73.7	44	50.4	1	3	248	0.00	29.975 
18:00	73.5	73.5	73.5	43	49.6	1	4	248	0.00	29.966 
18:05	73.3	73.3	73.3	44	50.1	0	2	248	0.00	29.966 
18:10	73.3	73.3	73.3	43	49.4	1	3	248	0.00	29.966 
18:15	73.3	73.3	73.3	42	48.8	0	1	248	0.00	29.957 
18:20	73.3	73.3	73.3	43	49.4	0	1	248	0.00	29.957 
18:25	73.3	73.3	73.3	43	49.4	0	0	---	0.00	29.957 
18:30	73.3	73.3	73.3	45	50.7	0	1	248	0.00	29.933 
18:35	73.3	73.3	73.3	43	49.4	0	1	248	0.00	29.933 
18:40	73.2	73.2	73.2	42	48.7	0	1	248	0.00	29.933 
18:45	73.2	73.2	73.2	42	48.7	0	0	---	0.00	29.928 
18:50	73.0	73.0	73.0	44	49.8	0	1	248	0.00	29.928 
18:55	72.7	72.7	72.7	45	50.1	0	1	248	0.00	29.928 
19:00	72.3	72.3	72.3	46	50.3	0	1	248	0.00	29.930 
19:05	72.0	72.0	72.0	45	49.5	0	2	248	0.00	29.930 
19:10	71.5	71.5	71.5	45	49.0	0	1	248	0.00	29.930 
19:15	71.1	71.1	71.1	45	48.7	0	1	248	0.00	29.932 
19:20	70.9	70.9	70.9	42	46.6	0	2	248	0.00	29.932 
19:25	71.1	71.1	71.1	43	47.5	0	1	248	0.00	29.932 
19:30	71.1	71.1	71.1	41	46.2	0	1	248	0.00	29.934 
19:35	71.1	71.1	71.1	41	46.2	0	1	248	0.00	29.934 
19:40	71.1	71.1	71.1	42	46.8	0	1	248	0.00	29.934 
19:45	70.9	70.9	70.9	42	46.6	0	0	---	0.00	29.926 
19:50	70.6	70.6	70.6	42	46.4	0	0	---	0.00	29.926 
19:55	70.3	70.3	70.3	43	46.7	0	1	248	0.00	29.926 
20:00	69.9	69.9	69.9	45	47.6	0	0	---	0.00	29.921 
20:05	69.4	69.4	69.4	45	47.1	0	0	---	0.00	29.921 
20:10	69.1	69.1	69.1	47	48.0	0	0	---	0.00	29.921 
20:15	68.6	68.6	68.6	47	47.6	0	0	---	0.00	29.918 
20:20	68.1	68.1	68.1	49	48.2	0	1	248	0.00	29.918 
20:25	67.6	67.6	67.6	49	47.8	0	0	---	0.00	29.918 
20:30	67.3	67.3	67.3	50	48.0	0	0	---	0.00	29.903 
20:35	66.8	66.8	66.8	51	48.1	0	0	---	0.00	29.903 
20:40	66.3	66.3	66.3	53	48.6	0	0	---	0.00	29.903 
20:45	65.8	65.8	65.8	54	48.7	0	0	---	0.00	29.895 
20:50	65.3	65.3	65.3	53	47.7	0	0	---	0.00	29.895 
20:55	64.8	64.8	64.8	55	48.2	0	0	---	0.00	29.895 
21:00	64.7	64.7	64.7	56	48.6	0	0	---	0.00	29.904 
21:05	64.5	64.5	64.5	57	48.9	0	0	---	0.00	29.904 
21:10	64.5	64.5	64.5	56	48.4	0	0	---	0.00	29.904 
21:15	64.7	64.7	64.7	57	49.1	0	0	---	0.00	29.901 
21:20	64.8	64.8	64.8	58	49.7	0	0	---	0.00	29.901 
21:25	65.0	65.0	65.0	58	49.9	0	0	---	0.00	29.901 
21:30	64.8	64.8	64.8	59	50.1	0	0	---	0.00	29.891 
21:35	64.7	64.7	64.7	58	49.6	0	0	---	0.00	29.891 
21:40	64.7	64.7	64.7	57	49.1	0	1	248	0.00	29.891 
21:45	64.7	64.7	64.7	58	49.6	0	0	---	0.00	29.886 
21:50	64.5	64.5	64.5	58	49.4	0	0	---	0.00	29.886 
21:55	64.3	64.3	64.3	58	49.2	0	0	---	0.00	29.886 
22:00	64.2	64.2	64.2	58	49.1	0	0	---	0.00	29.877 
22:05	64.2	64.2	64.2	58	49.1	0	0	---	0.00	29.877 
22:10	64.2	64.2	64.2	58	49.1	0	0	---	0.00	29.877 
22:15	64.2	64.2	64.2	58	49.1	0	1	248	0.00	29.869 
22:20	64.3	64.3	64.3	57	48.7	0	2	248	0.00	29.869 
22:25	64.7	64.7	64.7	57	49.1	0	1	248	0.00	29.869 
22:30	64.8	64.8	64.8	58	49.7	0	1	248	0.00	29.873 
22:35	64.8	64.8	64.8	58	49.7	0	1	248	0.00	29.873 
22:40	64.7	64.7	64.7	57	49.1	0	1	248	0.00	29.873 
22:45	64.8	64.8	64.8	57	49.2	0	2	248	0.00	29.870 
22:50	65.2	65.2	65.2	57	49.6	0	2	135	0.00	29.870 
22:55	65.3	65.3	65.3	57	49.7	0	3	135	0.00	29.870 
23:00	65.3	65.3	65.3	57	49.7	0	2	135	0.00	29.852 
23:05	65.2	65.2	65.2	58	50.0	0	2	135	0.00	29.852 
23:10	65.2	65.2	65.2	58	50.0	0	2	135	0.00	29.852 
23:15	65.0	65.0	65.0	59	50.3	0	4	112	0.00	29.845 
23:20	65.0	65.0	65.0	60	50.8	1	3	135	0.00	29.845 
23:25	65.0	65.0	65.0	62	51.7	1	4	135	0.00	29.845 
23:30	64.8	64.8	64.8	63	51.9	1	3	135	0.00	29.836 
23:35	64.7	64.7	64.7	65	52.7	1	2	90	0.00	29.836 
23:40	64.5	64.5	64.5	67	53.3	0	2	90	0.00	29.836 
23:45	64.3	64.3	64.3	70	54.3	0	3	158	0.00	29.820 
23:50	64.0	64.0	64.0	72	54.8	0	2	135	0.00	29.820 
23:55	63.9	63.9	63.9	74	55.4	0	2	135	0.00	29.820 

CoCoRaHS
IN-AL-39
A2 Web Hosting
Creative Commons License
GoDaddy
search engine by freefind advanced

loaded 2018-11-17 12:15:33 • last modified 2010-11-18 10:43:29
Privacy PolicyDisclaimer
• wx.awcolley.com is powered by PmWiki v.2002016 •
• all content (unless otherwise noted) © 2018 A W Colley